sensor_id;sensor_type;location;lat;lon;timestamp;temperature;humidity
21121;DHT22;12519;43.318;21.898;2024-02-14T00:01:57;9.6;100.0
21121;DHT22;12519;43.318;21.898;2024-02-14T00:06:35;9.6;100.0
21121;DHT22;12519;43.318;21.898;2024-02-14T00:11:12;9.6;100.0
21121;DHT22;12519;43.318;21.898;2024-02-14T00:15:48;9.6;100.0
21121;DHT22;12519;43.318;21.898;2024-02-14T00:20:25;9.6;100.0
21121;DHT22;12519;43.318;21.898;2024-02-14T00:25:01;9.5;100.0
21121;DHT22;12519;43.318;21.898;2024-02-14T00:29:39;9.5;100.0
21121;DHT22;12519;43.318;21.898;2024-02-14T00:34:15;9.5;100.0
21121;DHT22;12519;43.318;21.898;2024-02-14T00:38:52;9.5;100.0
21121;DHT22;12519;43.318;21.898;2024-02-14T00:43:29;9.5;100.0
21121;DHT22;12519;43.318;21.898;2024-02-14T00:48:07;9.5;100.0
21121;DHT22;12519;43.318;21.898;2024-02-14T00:52:43;9.5;100.0
21121;DHT22;12519;43.318;21.898;2024-02-14T00:57:20;9.4;100.0
21121;DHT22;12519;43.318;21.898;2024-02-14T01:01:56;9.4;100.0
21121;DHT22;12519;43.318;21.898;2024-02-14T01:06:32;9.3;100.0
21121;DHT22;12519;43.318;21.898;2024-02-14T01:11:10;9.3;100.0
21121;DHT22;12519;43.318;21.898;2024-02-14T01:15:46;9.2;100.0
21121;DHT22;12519;43.318;21.898;2024-02-14T01:20:23;9.2;100.0
21121;DHT22;12519;43.318;21.898;2024-02-14T01:24:59;9.2;100.0
21121;DHT22;12519;43.318;21.898;2024-02-14T01:29:36;9.2;100.0
21121;DHT22;12519;43.318;21.898;2024-02-14T01:34:13;9.2;100.0
21121;DHT22;12519;43.318;21.898;2024-02-14T01:38:50;9.2;100.0
21121;DHT22;12519;43.318;21.898;2024-02-14T01:43:26;9.2;100.0
21121;DHT22;12519;43.318;21.898;2024-02-14T01:48:05;9.3;100.0
21121;DHT22;12519;43.318;21.898;2024-02-14T01:52:45;9.3;100.0
21121;DHT22;12519;43.318;21.898;2024-02-14T01:57:23;9.3;99.0
21121;DHT22;12519;43.318;21.898;2024-02-14T02:02:00;9.3;99.0
21121;DHT22;12519;43.318;21.898;2024-02-14T02:06:38;9.3;99.0
21121;DHT22;12519;43.318;21.898;2024-02-14T02:11:15;9.3;99.0
21121;DHT22;12519;43.318;21.898;2024-02-14T02:15:53;9.1;98.0
21121;DHT22;12519;43.318;21.898;2024-02-14T02:20:29;9.1;98.0
21121;DHT22;12519;43.318;21.898;2024-02-14T02:25:07;8.9;98.0
21121;DHT22;12519;43.318;21.898;2024-02-14T02:29:43;8.9;98.0
21121;DHT22;12519;43.318;21.898;2024-02-14T02:34:19;8.9;98.0
21121;DHT22;12519;43.318;21.898;2024-02-14T02:38:55;8.8;98.0
21121;DHT22;12519;43.318;21.898;2024-02-14T02:43:35;8.8;98.0
21121;DHT22;12519;43.318;21.898;2024-02-14T02:48:12;8.7;98.0
21121;DHT22;12519;43.318;21.898;2024-02-14T02:52:48;8.7;98.0
21121;DHT22;12519;43.318;21.898;2024-02-14T02:57:25;8.6;99.0
21121;DHT22;12519;43.318;21.898;2024-02-14T03:02:01;8.6;99.0
21121;DHT22;12519;43.318;21.898;2024-02-14T03:06:39;8.6;99.0
21121;DHT22;12519;43.318;21.898;2024-02-14T03:11:16;8.6;99.0
21121;DHT22;12519;43.318;21.898;2024-02-14T03:15:52;8.6;99.0
21121;DHT22;12519;43.318;21.898;2024-02-14T03:20:28;8.6;99.0
21121;DHT22;12519;43.318;21.898;2024-02-14T03:25:05;8.6;99.0
21121;DHT22;12519;43.318;21.898;2024-02-14T03:29:43;8.7;98.0
21121;DHT22;12519;43.318;21.898;2024-02-14T03:34:20;8.7;98.0
21121;DHT22;12519;43.318;21.898;2024-02-14T03:38:55;8.7;98.0
21121;DHT22;12519;43.318;21.898;2024-02-14T03:43:32;8.7;98.0
21121;DHT22;12519;43.318;21.898;2024-02-14T03:48:08;8.7;98.0
21121;DHT22;12519;43.318;21.898;2024-02-14T03:52:43;8.7;98.0
21121;DHT22;12519;43.318;21.898;2024-02-14T03:57:20;8.8;97.0
21121;DHT22;12519;43.318;21.898;2024-02-14T04:01:56;8.8;97.0
21121;DHT22;12519;43.318;21.898;2024-02-14T04:06:32;8.8;96.0
21121;DHT22;12519;43.318;21.898;2024-02-14T04:11:09;8.8;96.0
21121;DHT22;12519;43.318;21.898;2024-02-14T04:15:46;8.9;96.0
21121;DHT22;12519;43.318;21.898;2024-02-14T04:20:23;8.9;96.0
21121;DHT22;12519;43.318;21.898;2024-02-14T04:24:59;8.9;96.0
21121;DHT22;12519;43.318;21.898;2024-02-14T04:29:36;9.0;95.0
21121;DHT22;12519;43.318;21.898;2024-02-14T04:34:12;9.0;95.0
21121;DHT22;12519;43.318;21.898;2024-02-14T04:38:49;9.0;94.0
21121;DHT22;12519;43.318;21.898;2024-02-14T04:43:26;9.0;94.0
21121;DHT22;12519;43.318;21.898;2024-02-14T04:48:03;9.1;93.0
21121;DHT22;12519;43.318;21.898;2024-02-14T04:52:40;9.1;93.0
21121;DHT22;12519;43.318;21.898;2024-02-14T04:57:16;8.8;92.0
21121;DHT22;12519;43.318;21.898;2024-02-14T05:01:52;8.8;92.0
21121;DHT22;12519;43.318;21.898;2024-02-14T05:06:28;8.6;92.0
21121;DHT22;12519;43.318;21.898;2024-02-14T05:11:04;8.6;92.0
21121;DHT22;12519;43.318;21.898;2024-02-14T05:15:41;8.5;92.0
21121;DHT22;12519;43.318;21.898;2024-02-14T05:20:17;8.5;92.0
21121;DHT22;12519;43.318;21.898;2024-02-14T05:24:54;8.5;92.0
21121;DHT22;12519;43.318;21.898;2024-02-14T05:29:30;8.4;92.0
21121;DHT22;12519;43.318;21.898;2024-02-14T05:34:07;8.4;92.0
21121;DHT22;12519;43.318;21.898;2024-02-14T05:38:43;8.4;93.0
21121;DHT22;12519;43.318;21.898;2024-02-14T05:43:19;8.4;93.0
21121;DHT22;12519;43.318;21.898;2024-02-14T05:47:55;8.4;94.0
21121;DHT22;12519;43.318;21.898;2024-02-14T05:52:32;8.4;94.0
21121;DHT22;12519;43.318;21.898;2024-02-14T05:57:08;9.2;91.0
21121;DHT22;12519;43.318;21.898;2024-02-14T06:01:44;9.2;91.0
21121;DHT22;12519;43.318;21.898;2024-02-14T06:06:20;9.9;89.0
21121;DHT22;12519;43.318;21.898;2024-02-14T06:10:56;9.9;89.0
21121;DHT22;12519;43.318;21.898;2024-02-14T06:15:33;9.9;89.0
21121;DHT22;12519;43.318;21.898;2024-02-14T06:20:10;9.1;89.0
21121;DHT22;12519;43.318;21.898;2024-02-14T06:24:48;9.1;89.0
21121;DHT22;12519;43.318;21.898;2024-02-14T06:29:24;8.3;90.0
21121;DHT22;12519;43.318;21.898;2024-02-14T06:34:01;8.3;90.0
21121;DHT22;12519;43.318;21.898;2024-02-14T06:38:38;8.2;89.0
21121;DHT22;12519;43.318;21.898;2024-02-14T06:43:14;8.2;89.0
21121;DHT22;12519;43.318;21.898;2024-02-14T06:47:50;8.1;89.0
21121;DHT22;12519;43.318;21.898;2024-02-14T06:52:27;8.1;89.0
21121;DHT22;12519;43.318;21.898;2024-02-14T06:57:04;8.3;89.0
21121;DHT22;12519;43.318;21.898;2024-02-14T07:01:41;8.3;89.0
21121;DHT22;12519;43.318;21.898;2024-02-14T07:06:17;8.5;88.0
21121;DHT22;12519;43.318;21.898;2024-02-14T07:10:54;8.5;88.0
21121;DHT22;12519;43.318;21.898;2024-02-14T07:15:31;8.5;88.0
21121;DHT22;12519;43.318;21.898;2024-02-14T07:20:07;8.4;88.0
21121;DHT22;12519;43.318;21.898;2024-02-14T07:24:45;8.4;88.0
21121;DHT22;12519;43.318;21.898;2024-02-14T07:29:22;8.2;88.0
21121;DHT22;12519;43.318;21.898;2024-02-14T07:33:58;8.2;88.0
21121;DHT22;12519;43.318;21.898;2024-02-14T07:38:34;8.2;88.0
21121;DHT22;12519;43.318;21.898;2024-02-14T07:43:10;8.2;88.0
21121;DHT22;12519;43.318;21.898;2024-02-14T07:47:46;8.2;88.0
21121;DHT22;12519;43.318;21.898;2024-02-14T07:52:25;8.2;88.0
21121;DHT22;12519;43.318;21.898;2024-02-14T07:57:01;9.0;88.0
21121;DHT22;12519;43.318;21.898;2024-02-14T08:01:37;9.0;88.0
21121;DHT22;12519;43.318;21.898;2024-02-14T08:06:13;9.9;88.0
21121;DHT22;12519;43.318;21.898;2024-02-14T08:10:50;9.9;88.0
21121;DHT22;12519;43.318;21.898;2024-02-14T08:15:26;9.9;88.0
21121;DHT22;12519;43.318;21.898;2024-02-14T08:20:04;10.2;85.0
21121;DHT22;12519;43.318;21.898;2024-02-14T08:24:44;10.2;85.0
21121;DHT22;12519;43.318;21.898;2024-02-14T08:29:20;10.6;83.0
21121;DHT22;12519;43.318;21.898;2024-02-14T08:33:58;10.6;83.0
21121;DHT22;12519;43.318;21.898;2024-02-14T08:38:34;10.6;82.0
21121;DHT22;12519;43.318;21.898;2024-02-14T08:43:11;10.6;82.0
21121;DHT22;12519;43.318;21.898;2024-02-14T08:47:47;10.5;82.0
21121;DHT22;12519;43.318;21.898;2024-02-14T08:52:23;10.5;82.0
21121;DHT22;12519;43.318;21.898;2024-02-14T08:57:04;10.9;81.0
21121;DHT22;12519;43.318;21.898;2024-02-14T09:01:40;10.9;81.0
21121;DHT22;12519;43.318;21.898;2024-02-14T09:06:17;11.3;81.0
21121;DHT22;12519;43.318;21.898;2024-02-14T09:10:53;11.3;81.0
21121;DHT22;12519;43.318;21.898;2024-02-14T09:15:30;11.3;81.0
21121;DHT22;12519;43.318;21.898;2024-02-14T09:20:08;11.0;80.0
21121;DHT22;12519;43.318;21.898;2024-02-14T09:24:47;11.0;80.0
21121;DHT22;12519;43.318;21.898;2024-02-14T09:29:26;10.6;80.0
21121;DHT22;12519;43.318;21.898;2024-02-14T09:34:03;10.6;80.0
21121;DHT22;12519;43.318;21.898;2024-02-14T09:38:40;10.6;81.0
21121;DHT22;12519;43.318;21.898;2024-02-14T09:43:23;10.6;81.0
21121;DHT22;12519;43.318;21.898;2024-02-14T09:48:19;10.5;81.0
21121;DHT22;12519;43.318;21.898;2024-02-14T09:53:02;10.5;81.0
21121;DHT22;12519;43.318;21.898;2024-02-14T09:57:43;10.6;80.0
21121;DHT22;12519;43.318;21.898;2024-02-14T10:02:24;10.6;80.0
21121;DHT22;12519;43.318;21.898;2024-02-14T10:07:01;10.8;80.0
21121;DHT22;12519;43.318;21.898;2024-02-14T10:11:37;10.8;80.0
21121;DHT22;12519;43.318;21.898;2024-02-14T10:16:14;10.6;80.0
21121;DHT22;12519;43.318;21.898;2024-02-14T10:20:54;10.6;80.0
21121;DHT22;12519;43.318;21.898;2024-02-14T10:25:31;10.6;80.0
21121;DHT22;12519;43.318;21.898;2024-02-14T10:30:12;10.5;80.0
21121;DHT22;12519;43.318;21.898;2024-02-14T10:34:50;10.5;80.0
21121;DHT22;12519;43.318;21.898;2024-02-14T10:39:28;10.8;79.0
21121;DHT22;12519;43.318;21.898;2024-02-14T10:44:11;10.8;79.0
21121;DHT22;12519;43.318;21.898;2024-02-14T10:48:50;11.2;78.0
21121;DHT22;12519;43.318;21.898;2024-02-14T10:53:40;11.2;78.0
21121;DHT22;12519;43.318;21.898;2024-02-14T10:58:29;11.0;78.0
21121;DHT22;12519;43.318;21.898;2024-02-14T11:03:10;11.0;78.0
21121;DHT22;12519;43.318;21.898;2024-02-14T11:07:50;10.9;77.0
21121;DHT22;12519;43.318;21.898;2024-02-14T11:12:26;10.9;77.0
21121;DHT22;12519;43.318;21.898;2024-02-14T11:17:12;11.0;77.0
21121;DHT22;12519;43.318;21.898;2024-02-14T11:21:49;11.0;77.0
21121;DHT22;12519;43.318;21.898;2024-02-14T11:26:25;11.2;77.0
21121;DHT22;12519;43.318;21.898;2024-02-14T11:31:01;11.2;77.0
21121;DHT22;12519;43.318;21.898;2024-02-14T11:35:39;11.2;77.0
21121;DHT22;12519;43.318;21.898;2024-02-14T11:40:19;11.1;76.0
21121;DHT22;12519;43.318;21.898;2024-02-14T11:44:55;11.1;76.0
21121;DHT22;12519;43.318;21.898;2024-02-14T11:49:31;11.0;75.0
21121;DHT22;12519;43.318;21.898;2024-02-14T11:54:08;11.0;75.0
21121;DHT22;12519;43.318;21.898;2024-02-14T11:58:45;11.1;75.0
21121;DHT22;12519;43.318;21.898;2024-02-14T12:03:24;11.1;75.0
21121;DHT22;12519;43.318;21.898;2024-02-14T12:08:02;11.2;75.0
21121;DHT22;12519;43.318;21.898;2024-02-14T12:12:45;11.2;75.0
21121;DHT22;12519;43.318;21.898;2024-02-14T12:17:23;11.3;74.0
21121;DHT22;12519;43.318;21.898;2024-02-14T12:22:00;11.3;74.0
21121;DHT22;12519;43.318;21.898;2024-02-14T12:26:38;11.4;73.0
21121;DHT22;12519;43.318;21.898;2024-02-14T12:31:22;11.4;73.0
21121;DHT22;12519;43.318;21.898;2024-02-14T12:36:00;11.4;73.0
21121;DHT22;12519;43.318;21.898;2024-02-14T12:40:38;11.9;73.0
21121;DHT22;12519;43.318;21.898;2024-02-14T12:45:17;11.9;73.0
21121;DHT22;12519;43.318;21.898;2024-02-14T12:49:53;12.4;74.0
21121;DHT22;12519;43.318;21.898;2024-02-14T12:54:29;12.4;74.0
21121;DHT22;12519;43.318;21.898;2024-02-14T12:59:06;12.0;73.0
21121;DHT22;12519;43.318;21.898;2024-02-14T13:03:43;12.0;73.0
21121;DHT22;12519;43.318;21.898;2024-02-14T13:08:19;11.6;72.0
21121;DHT22;12519;43.318;21.898;2024-02-14T13:12:55;11.6;72.0
21121;DHT22;12519;43.318;21.898;2024-02-14T13:17:31;11.6;72.0
21121;DHT22;12519;43.318;21.898;2024-02-14T13:22:08;11.6;72.0
21121;DHT22;12519;43.318;21.898;2024-02-14T13:26:45;11.7;72.0
21121;DHT22;12519;43.318;21.898;2024-02-14T13:31:21;11.7;72.0
21121;DHT22;12519;43.318;21.898;2024-02-14T13:35:57;11.7;72.0
21121;DHT22;12519;43.318;21.898;2024-02-14T13:40:34;11.7;72.0
21121;DHT22;12519;43.318;21.898;2024-02-14T13:45:11;11.7;72.0
21121;DHT22;12519;43.318;21.898;2024-02-14T13:49:47;11.7;72.0
21121;DHT22;12519;43.318;21.898;2024-02-14T13:54:23;11.7;72.0
21121;DHT22;12519;43.318;21.898;2024-02-14T13:59:00;11.6;72.0
21121;DHT22;12519;43.318;21.898;2024-02-14T14:03:36;11.6;72.0
21121;DHT22;12519;43.318;21.898;2024-02-14T14:08:13;11.4;72.0
21121;DHT22;12519;43.318;21.898;2024-02-14T14:12:49;11.4;72.0
21121;DHT22;12519;43.318;21.898;2024-02-14T14:17:25;11.4;72.0
21121;DHT22;12519;43.318;21.898;2024-02-14T14:22:01;11.4;72.0
21121;DHT22;12519;43.318;21.898;2024-02-14T14:26:38;11.4;72.0
21121;DHT22;12519;43.318;21.898;2024-02-14T14:31:14;11.4;72.0
21121;DHT22;12519;43.318;21.898;2024-02-14T14:35:51;11.4;72.0
21121;DHT22;12519;43.318;21.898;2024-02-14T14:40:27;11.4;72.0
21121;DHT22;12519;43.318;21.898;2024-02-14T14:45:04;11.4;72.0
21121;DHT22;12519;43.318;21.898;2024-02-14T14:49:43;11.5;72.0
21121;DHT22;12519;43.318;21.898;2024-02-14T14:54:19;11.5;72.0
21121;DHT22;12519;43.318;21.898;2024-02-14T14:58:55;11.4;72.0
21121;DHT22;12519;43.318;21.898;2024-02-14T15:03:32;11.4;72.0
21121;DHT22;12519;43.318;21.898;2024-02-14T15:08:08;11.2;72.0
21121;DHT22;12519;43.318;21.898;2024-02-14T15:12:45;11.2;72.0
21121;DHT22;12519;43.318;21.898;2024-02-14T15:17:21;11.3;72.0
21121;DHT22;12519;43.318;21.898;2024-02-14T15:21:58;11.3;72.0
21121;DHT22;12519;43.318;21.898;2024-02-14T15:26:35;11.3;72.0
21121;DHT22;12519;43.318;21.898;2024-02-14T15:31:11;11.4;72.0
21121;DHT22;12519;43.318;21.898;2024-02-14T15:35:47;11.4;72.0
21121;DHT22;12519;43.318;21.898;2024-02-14T15:40:24;11.2;73.0
21121;DHT22;12519;43.318;21.898;2024-02-14T15:45:00;11.2;73.0
21121;DHT22;12519;43.318;21.898;2024-02-14T15:49:36;11.0;74.0
21121;DHT22;12519;43.318;21.898;2024-02-14T15:54:12;11.0;74.0
21121;DHT22;12519;43.318;21.898;2024-02-14T15:58:48;10.8;73.0
21121;DHT22;12519;43.318;21.898;2024-02-14T16:03:24;10.8;73.0
21121;DHT22;12519;43.318;21.898;2024-02-14T16:08:00;10.5;73.0
21121;DHT22;12519;43.318;21.898;2024-02-14T16:12:36;10.5;73.0
21121;DHT22;12519;43.318;21.898;2024-02-14T16:17:12;10.4;74.0
21121;DHT22;12519;43.318;21.898;2024-02-14T16:21:49;10.4;74.0
21121;DHT22;12519;43.318;21.898;2024-02-14T16:26:25;10.4;74.0
21121;DHT22;12519;43.318;21.898;2024-02-14T16:31:01;10.2;74.0
21121;DHT22;12519;43.318;21.898;2024-02-14T16:35:37;10.2;74.0
21121;DHT22;12519;43.318;21.898;2024-02-14T16:40:13;10.1;74.0
21121;DHT22;12519;43.318;21.898;2024-02-14T16:44:50;10.1;74.0
21121;DHT22;12519;43.318;21.898;2024-02-14T16:49:28;10.1;74.0
21121;DHT22;12519;43.318;21.898;2024-02-14T16:54:05;10.1;74.0
21121;DHT22;12519;43.318;21.898;2024-02-14T16:58:41;10.0;74.0
21121;DHT22;12519;43.318;21.898;2024-02-14T17:03:17;10.0;74.0
21121;DHT22;12519;43.318;21.898;2024-02-14T17:07:53;10.0;74.0
21121;DHT22;12519;43.318;21.898;2024-02-14T17:12:29;10.0;74.0
21121;DHT22;12519;43.318;21.898;2024-02-14T17:17:06;10.0;74.0
21121;DHT22;12519;43.318;21.898;2024-02-14T17:21:43;10.0;74.0
21121;DHT22;12519;43.318;21.898;2024-02-14T17:26:20;10.0;74.0
21121;DHT22;12519;43.318;21.898;2024-02-14T17:30:56;10.0;75.0
21121;DHT22;12519;43.318;21.898;2024-02-14T17:35:33;10.0;75.0
21121;DHT22;12519;43.318;21.898;2024-02-14T17:40:10;10.0;75.0
21121;DHT22;12519;43.318;21.898;2024-02-14T17:44:47;10.0;75.0
21121;DHT22;12519;43.318;21.898;2024-02-14T17:49:24;9.9;76.0
21121;DHT22;12519;43.318;21.898;2024-02-14T17:54:01;9.9;76.0
21121;DHT22;12519;43.318;21.898;2024-02-14T17:58:38;9.9;76.0
21121;DHT22;12519;43.318;21.898;2024-02-14T18:03:15;9.9;76.0
21121;DHT22;12519;43.318;21.898;2024-02-14T18:07:51;9.9;76.0
21121;DHT22;12519;43.318;21.898;2024-02-14T18:12:27;9.9;76.0
21121;DHT22;12519;43.318;21.898;2024-02-14T18:17:03;9.9;76.0
21121;DHT22;12519;43.318;21.898;2024-02-14T18:21:39;9.8;77.0
21121;DHT22;12519;43.318;21.898;2024-02-14T18:26:15;9.8;77.0
21121;DHT22;12519;43.318;21.898;2024-02-14T18:30:51;9.7;77.0
21121;DHT22;12519;43.318;21.898;2024-02-14T18:35:27;9.7;77.0
21121;DHT22;12519;43.318;21.898;2024-02-14T18:40:04;9.6;77.0
21121;DHT22;12519;43.318;21.898;2024-02-14T18:44:45;9.6;77.0
21121;DHT22;12519;43.318;21.898;2024-02-14T18:49:21;9.4;77.0
21121;DHT22;12519;43.318;21.898;2024-02-14T18:53:58;9.4;77.0
21121;DHT22;12519;43.318;21.898;2024-02-14T18:58:34;9.2;78.0
21121;DHT22;12519;43.318;21.898;2024-02-14T19:03:10;9.2;78.0
21121;DHT22;12519;43.318;21.898;2024-02-14T19:07:46;9.1;78.0
21121;DHT22;12519;43.318;21.898;2024-02-14T19:12:23;9.1;78.0
21121;DHT22;12519;43.318;21.898;2024-02-14T19:16:59;9.1;78.0
21121;DHT22;12519;43.318;21.898;2024-02-14T19:21:35;9.1;78.0
21121;DHT22;12519;43.318;21.898;2024-02-14T19:26:11;9.1;78.0
21121;DHT22;12519;43.318;21.898;2024-02-14T19:30:47;9.2;78.0
21121;DHT22;12519;43.318;21.898;2024-02-14T19:35:23;9.2;78.0
21121;DHT22;12519;43.318;21.898;2024-02-14T19:40:00;9.6;78.0
21121;DHT22;12519;43.318;21.898;2024-02-14T19:44:36;9.6;78.0
21121;DHT22;12519;43.318;21.898;2024-02-14T19:49:12;9.9;77.0
21121;DHT22;12519;43.318;21.898;2024-02-14T19:53:48;9.9;77.0
21121;DHT22;12519;43.318;21.898;2024-02-14T19:58:24;9.6;77.0
21121;DHT22;12519;43.318;21.898;2024-02-14T20:03:01;9.6;77.0
21121;DHT22;12519;43.318;21.898;2024-02-14T20:07:38;9.4;78.0
21121;DHT22;12519;43.318;21.898;2024-02-14T20:12:14;9.4;78.0
21121;DHT22;12519;43.318;21.898;2024-02-14T20:16:52;9.4;78.0
21121;DHT22;12519;43.318;21.898;2024-02-14T20:21:29;9.2;78.0
21121;DHT22;12519;43.318;21.898;2024-02-14T20:26:07;9.2;78.0
21121;DHT22;12519;43.318;21.898;2024-02-14T20:30:43;8.9;79.0
21121;DHT22;12519;43.318;21.898;2024-02-14T20:35:20;8.9;79.0
21121;DHT22;12519;43.318;21.898;2024-02-14T20:39:57;8.9;79.0
21121;DHT22;12519;43.318;21.898;2024-02-14T20:44:33;8.9;79.0
21121;DHT22;12519;43.318;21.898;2024-02-14T20:49:10;8.9;79.0
21121;DHT22;12519;43.318;21.898;2024-02-14T20:53:45;8.9;79.0
21121;DHT22;12519;43.318;21.898;2024-02-14T20:58:21;8.8;79.0
21121;DHT22;12519;43.318;21.898;2024-02-14T21:02:57;8.8;79.0
21121;DHT22;12519;43.318;21.898;2024-02-14T21:07:33;8.6;80.0
21121;DHT22;12519;43.318;21.898;2024-02-14T21:12:09;8.6;80.0
21121;DHT22;12519;43.318;21.898;2024-02-14T21:16:47;8.6;80.0
21121;DHT22;12519;43.318;21.898;2024-02-14T21:21:23;8.6;80.0
21121;DHT22;12519;43.318;21.898;2024-02-14T21:25:59;8.6;80.0
21121;DHT22;12519;43.318;21.898;2024-02-14T21:30:35;8.6;80.0
21121;DHT22;12519;43.318;21.898;2024-02-14T21:35:12;8.6;80.0
21121;DHT22;12519;43.318;21.898;2024-02-14T21:39:49;8.4;80.0
21121;DHT22;12519;43.318;21.898;2024-02-14T21:44:25;8.4;80.0
21121;DHT22;12519;43.318;21.898;2024-02-14T21:49:01;8.2;81.0
21121;DHT22;12519;43.318;21.898;2024-02-14T21:53:38;8.2;81.0
21121;DHT22;12519;43.318;21.898;2024-02-14T21:58:14;8.4;80.0
21121;DHT22;12519;43.318;21.898;2024-02-14T22:02:50;8.4;80.0
21121;DHT22;12519;43.318;21.898;2024-02-14T22:07:27;8.4;80.0
21121;DHT22;12519;43.318;21.898;2024-02-14T22:12:03;8.6;80.0
21121;DHT22;12519;43.318;21.898;2024-02-14T22:16:42;8.6;80.0
21121;DHT22;12519;43.318;21.898;2024-02-14T22:21:18;9.2;82.0
21121;DHT22;12519;43.318;21.898;2024-02-14T22:25:54;9.2;82.0
21121;DHT22;12519;43.318;21.898;2024-02-14T22:30:29;9.9;84.0
21121;DHT22;12519;43.318;21.898;2024-02-14T22:35:06;9.9;84.0
21121;DHT22;12519;43.318;21.898;2024-02-14T22:39:43;10.0;80.0
21121;DHT22;12519;43.318;21.898;2024-02-14T22:44:19;10.0;80.0
21121;DHT22;12519;43.318;21.898;2024-02-14T22:48:55;10.1;76.0
21121;DHT22;12519;43.318;21.898;2024-02-14T22:53:31;10.1;76.0
21121;DHT22;12519;43.318;21.898;2024-02-14T22:58:09;9.4;78.0
21121;DHT22;12519;43.318;21.898;2024-02-14T23:02:46;9.4;78.0
21121;DHT22;12519;43.318;21.898;2024-02-14T23:07:22;9.4;78.0
21121;DHT22;12519;43.318;21.898;2024-02-14T23:11:59;8.8;79.0
21121;DHT22;12519;43.318;21.898;2024-02-14T23:16:35;8.8;79.0
21121;DHT22;12519;43.318;21.898;2024-02-14T23:21:12;8.6;79.0
21121;DHT22;12519;43.318;21.898;2024-02-14T23:25:49;8.6;79.0
21121;DHT22;12519;43.318;21.898;2024-02-14T23:30:25;8.5;80.0
21121;DHT22;12519;43.318;21.898;2024-02-14T23:35:02;8.5;80.0
21121;DHT22;12519;43.318;21.898;2024-02-14T23:39:40;8.6;80.0
21121;DHT22;12519;43.318;21.898;2024-02-14T23:44:16;8.6;80.0
21121;DHT22;12519;43.318;21.898;2024-02-14T23:48:52;8.6;80.0
21121;DHT22;12519;43.318;21.898;2024-02-14T23:53:28;8.6;80.0
21121;DHT22;12519;43.318;21.898;2024-02-14T23:58:03;8.4;80.0
